Pescara - LIBP

Metar : METAR LIBP 202350Z AUTO 22004KT 9999 NCD 21/18 Q1019=

Taf : TAF LIBP 202300Z 2100/2124 VRB05KT 9999 FEW030 BECMG 2109/2111 06010KT BECMG 2116/2118 VRB05KT=

 Scopri come leggere i bollettini codificati...


Storico

LIBP 202350Z AUTO 22004KT 9999 NCD 21/18 Q1019
LIBP 202250Z AUTO 22003KT 9999 NCD 22/19 Q1019
LIBP 202150Z AUTO 24003KT 9999 NCD 23/19 Q1019
LIBP 202050Z VRB02KT CAVOK 24/19 Q1019
LIBP 201950Z 08004KT 9999 FEW090 26/19 Q1018
LIBP 201850Z 09004KT 9999 FEW090 27/19 Q1018
LIBP 201750Z 09003KT 070V140 9999 FEW100 28/19 Q1018
LIBP 201650Z 06005KT 030V090 9999 FEW090 29/20 Q1018
LIBP 201550Z 09008KT CAVOK 30/18 Q1017
LIBP 201450Z 07007KT 040V110 CAVOK 30/20 Q1017
LIBP 201350Z 07008KT 040V100 CAVOK 30/19 Q1018
LIBP 201250Z 07009KT CAVOK 30/18 Q1018
LIBP 201150Z 07008KT CAVOK 30/18 Q1018
LIBP 201050Z 06008KT CAVOK 30/18 Q1018
LIBP 200950Z 05007KT CAVOK 29/19 Q1018
LIBP 200850Z VRB02KT CAVOK 29/16 Q1018
LIBP 200750Z 23004KT 190V270 CAVOK 27/17 Q1018
LIBP 200650Z 24004KT CAVOK 25/17 Q1018
LIBP 200550Z 23004KT CAVOK 22/16 Q1018
LIBP 200450Z AUTO 19003KT 9999 NCD 19/16 Q1017
LIBP 200350Z AUTO 21005KT 9999 NCD 17/15 Q1017
LIBP 200250Z AUTO 20005KT 9999 NCD 18/16 Q1017
LIBP 200150Z AUTO 21006KT 9999 NCD 18/17 Q1016
LIBP 200050Z AUTO 24003KT 220V280 9999 NCD 19/17 Q1017
LIBP 192350Z AUTO 21006KT 9999 NCD 19/17 Q1017
LIBP 192250Z AUTO 22004KT 9999 NCD 20/17 Q1017
LIBP 192150Z AUTO VRB02KT 9999 NCD 21/18 Q1017
LIBP 192050Z VRB01KT CAVOK 23/17 Q1017
LIBP 191950Z VRB03KT CAVOK 25/17 Q1016
LIBP 191850Z VRB01KT CAVOK 25/17 Q1016
LIBP 191750Z 07003KT 020V110 CAVOK 27/18 Q1016
LIBP 191650Z 06007KT CAVOK 27/18 Q1016
LIBP 191550Z 05004KT 360V090 9999 FEW070 28/18 Q1015
LIBP 191450Z 06008KT CAVOK 29/19 Q1015
LIBP 191350Z 06008KT 030V090 CAVOK 29/19 Q1016
LIBP 191250Z 06009KT CAVOK 28/20 Q1016
LIBP 191150Z 06009KT 030V090 CAVOK 28/20 Q1016
LIBP 191050Z 07008KT 020V110 CAVOK 28/21 Q1016
LIBP 190950Z 05009KT CAVOK 27/21 Q1016
LIBP 190850Z VRB02KT CAVOK 28/18 Q1016
LIBP 190750Z VRB01KT CAVOK 26/19 Q1016
LIBP 190650Z 23005KT 190V250 CAVOK 24/18 Q1016
LIBP 190550Z 22005KT CAVOK 21/17 Q1015
LIBP 190450Z AUTO 21004KT 9999 NCD 19/17 Q1015
LIBP 190350Z AUTO 20004KT 9999 NCD 17/16 Q1015
LIBP 190250Z AUTO 22004KT 9999 NCD 17/16 Q1014
LIBP 190150Z AUTO 22004KT 9999 NCD 18/17 Q1014
LIBP 190050Z AUTO 21005KT 9999 NCD 19/17 Q1014
LIBP 182350Z AUTO 23003KT 9999 FEW110/// 20/18 Q1014
LIBP 182250Z AUTO 20004KT 9999 FEW100/// SCT120/// 20/17 Q1014
LIBP 182150Z AUTO 19003KT 140V220 9999 FEW190/// 22/18 Q1014
LIBP 182050Z VRB01KT 9999 SCT080 23/18 Q1013
LIBP 181950Z VRB01KT CAVOK 25/17 Q1013
LIBP 181850Z 10003KT 060V140 9999 FEW080 26/17 Q1012
LIBP 181750Z 08004KT 9999 FEW080 27/17 Q1012
LIBP 181650Z 08003KT 030V110 9999 SCT090 27/17 Q1011
LIBP 181550Z 08006KT 050V110 9999 SCT050 27/17 Q1011
LIBP 181450Z 08008KT CAVOK 29/17 Q1011
LIBP 181350Z 08010KT 050V120 CAVOK 29/16 Q1011
LIBP 181250Z 08007KT 040V120 CAVOK 30/13 Q1011
LIBP 181150Z 07009KT CAVOK 30/14 Q1011
LIBP 180950Z 06008KT CAVOK 29/17 Q1011
LIBP 180850Z 06005KT 010V130 CAVOK 28/15 Q1011
LIBP 180750Z VRB02KT CAVOK 27/13 Q1011
LIBP 180650Z 20004KT CAVOK 23/16 Q1011
LIBP 180550Z 22004KT CAVOK 19/15 Q1011
LIBP 180450Z AUTO 20006KT 9999 NCD 17/14 Q1011
LIBP 180350Z AUTO 22005KT 9999 NCD 15/13 Q1011
LIBP 180250Z AUTO 21006KT 9999 NCD 15/13 Q1011
LIBP 180150Z AUTO 21003KT 9999 NCD 16/13 Q1011
LIBP 180050Z AUTO 20005KT 9999 NCD 16/13 Q1011
LIBP 172350Z AUTO 23004KT 9999 NCD 17/14 Q1012
LIBP 172250Z AUTO 23004KT 9999 NCD 18/14 Q1011
LIBP 172150Z AUTO 23004KT 9999 FEW091/// 19/14 Q1012
LIBP 172050Z 24003KT CAVOK 20/15 Q1012
LIBP 171950Z 23003KT CAVOK 22/15 Q1012
LIBP 171850Z 32002KT CAVOK 24/15 Q1011
LIBP 171750Z 09003KT 060V140 CAVOK 26/13 Q1011
LIBP 171650Z 06005KT CAVOK 27/12 Q1011
LIBP 171550Z 08005KT 020V140 CAVOK 27/12 Q1012
LIBP 171450Z 09006KT 040V140 CAVOK 28/14 Q1012
LIBP 171350Z 06008KT 020V110 CAVOK 28/12 Q1013
LIBP 171250Z 03009KT 360V060 CAVOK 27/12 Q1013
LIBP 171150Z 04009KT CAVOK 28/11 Q1013
LIBP 171050Z 04008KT CAVOK 27/16 Q1013
LIBP 170950Z 02007KT 340V050 9999 FEW040 27/16 Q1013
LIBP 170850Z 01008KT 300V060 CAVOK 27/17 Q1013
LIBP 170750Z 22004KT 180V280 CAVOK 25/14 Q1014

Informazioni elaborate utilizzando, tra l’altro, dati e prodotti del Servizio Meteorologico dell’Aeronautica Militare pubblicati sul sito www.meteoam.it e della National Oceanic and Atmospheric Administration (NOAA)

Ultimi caricamenti...


78 Pakistan Navy ATR 72-500

 


78 Pakistan Navy ATR 72-500

 


MM81592 (3-16) Marina Militare NH-90

Questo sito non utilizza cookie di profilazione. Il sito utilizza cookie tecnici, di analisi anonima di prima parte e di terze parti per servizi di social network.